createdAt,value
2017-06-05T14:09:20.447Z,2490.00
2017-06-05T14:10:16.779Z,2461.00
2017-06-05T14:11:13.103Z,2463.00
2017-06-05T14:12:09.406Z,2472.00
2017-06-05T14:13:08.623Z,2484.00
2017-06-05T14:14:04.900Z,2475.00
2017-06-05T14:15:01.135Z,2477.00
2017-06-05T14:15:57.374Z,2493.00
2017-06-05T14:16:53.624Z,2450.00
2017-06-05T14:17:49.863Z,2460.00
2017-06-05T14:18:46.108Z,2460.00
2017-06-05T14:19:42.379Z,2437.00
2017-06-05T14:20:39.462Z,2434.00
2017-06-05T14:21:36.499Z,2453.00
2017-06-05T14:22:32.739Z,2441.00
2017-06-05T14:23:28.995Z,2454.00
2017-06-05T14:24:25.239Z,2450.00
2017-06-05T14:25:21.484Z,2436.00
2017-06-05T14:26:18.654Z,2400.00
2017-06-05T14:27:14.895Z,2371.00
2017-06-05T14:28:11.130Z,2375.00
2017-06-05T14:29:07.371Z,2382.00
2017-06-05T14:30:03.609Z,2386.00
2017-06-05T14:30:59.869Z,2397.00
2017-06-05T14:31:57.059Z,2388.00
2017-06-05T14:32:53.325Z,2397.00
2017-06-05T14:33:49.583Z,2391.00
2017-06-05T14:34:45.842Z,2387.00
2017-06-05T14:35:42.080Z,2371.00
2017-06-05T14:36:38.327Z,2376.00
2017-06-05T14:37:34.593Z,2400.00
2017-06-05T14:38:30.839Z,2360.00
2017-06-05T14:39:27.079Z,2361.00
2017-06-05T14:40:23.336Z,2358.00
2017-06-05T14:41:19.570Z,2360.00
2017-06-05T14:42:15.852Z,2357.00
2017-06-05T14:43:12.108Z,2360.00
2017-06-05T14:44:08.347Z,2355.00
2017-06-05T14:45:04.588Z,2343.00
2017-06-05T14:46:00.847Z,2337.00
2017-06-05T14:46:57.080Z,2336.00
2017-06-05T14:47:53.551Z,2333.00
2017-06-05T14:48:49.798Z,2326.00
2017-06-05T14:49:46.043Z,2325.00
2017-06-05T14:50:42.287Z,2321.00
2017-06-05T14:51:39.311Z,2308.00
2017-06-05T14:52:35.575Z,2330.00
2017-06-05T14:53:31.815Z,2334.00
2017-06-05T14:54:28.051Z,2349.00
2017-06-05T14:55:24.282Z,2341.00
2017-06-05T14:56:20.507Z,2330.00
2017-06-05T14:57:16.742Z,2329.00
2017-06-05T14:58:12.982Z,2328.00
2017-06-05T14:59:09.243Z,2332.00
2017-06-05T15:00:05.475Z,2339.00
2017-06-05T15:01:01.927Z,2341.00
2017-06-05T15:01:58.166Z,2346.00
2017-06-05T15:02:54.411Z,2344.00
2017-06-05T15:03:50.658Z,2331.00
2017-06-05T15:04:47.132Z,2330.00
2017-06-05T15:05:43.408Z,2321.00
2017-06-05T15:06:39.701Z,2316.00
2017-06-05T15:07:36.594Z,2342.00
2017-06-05T15:08:32.855Z,2368.00
2017-06-05T15:09:29.099Z,2381.00
2017-06-05T15:10:25.334Z,2347.00
2017-06-05T15:11:21.571Z,2315.00
2017-06-05T15:12:17.811Z,2312.00
2017-06-05T15:13:14.064Z,2331.00
2017-06-05T15:14:10.343Z,2325.00
2017-06-05T15:15:06.576Z,464.00
2017-06-05T15:16:03.715Z,440.00
2017-06-05T15:16:59.957Z,425.00
2017-06-05T15:17:56.199Z,447.00
2017-06-05T15:18:52.447Z,1056.00
2017-06-05T15:19:48.714Z,458.00
2017-06-05T15:20:44.983Z,442.00
2017-06-05T15:21:41.231Z,485.00
2017-06-05T15:22:37.471Z,449.00
2017-06-05T15:23:35.711Z,434.00
2017-06-05T15:24:31.967Z,453.00
2017-06-05T15:25:28.199Z,550.00
2017-06-05T15:26:24.442Z,1055.00
2017-06-05T15:27:20.691Z,1528.00
2017-06-05T15:28:16.930Z,2021.00
2017-06-05T15:29:13.184Z,660.00
2017-06-05T15:30:10.407Z,2019.00
2017-06-05T15:31:06.663Z,1278.00
2017-06-05T15:32:02.923Z,1944.00
2017-06-05T15:32:59.178Z,2001.00
2017-06-05T15:33:55.411Z,2008.00
2017-06-05T15:34:52.630Z,2034.00
2017-06-05T15:35:49.727Z,2092.00
2017-06-05T15:36:46.179Z,1083.00
2017-06-05T15:37:42.447Z,1290.00
2017-06-05T15:38:38.699Z,992.00
2017-06-05T15:39:34.943Z,1964.00
2017-06-05T15:40:31.406Z,1984.00
2017-06-05T15:41:27.663Z,2002.00
2017-06-05T15:42:23.898Z,1000.00
2017-06-05T15:43:20.148Z,371.00
2017-06-05T15:44:16.386Z,388.00
2017-06-05T15:45:12.661Z,415.00
2017-06-05T15:46:08.915Z,444.00
2017-06-05T15:47:06.050Z,359.00
2017-06-05T15:48:02.327Z,338.00
2017-06-05T15:48:58.575Z,325.00
2017-06-05T15:49:54.823Z,316.00
2017-06-05T15:50:51.062Z,326.00
2017-06-05T15:51:47.314Z,780.00
2017-06-05T15:52:44.315Z,1757.00
2017-06-05T15:53:40.559Z,628.00
2017-06-05T15:54:37.651Z,1660.00
2017-06-05T15:55:33.919Z,1759.00
2017-06-05T15:56:30.193Z,1866.00
2017-06-05T15:57:26.441Z,1843.00
2017-06-05T15:58:22.675Z,1824.00
2017-06-05T15:59:18.939Z,1822.00
2017-06-05T16:00:15.203Z,1776.00
2017-06-05T16:01:11.444Z,486.00
2017-06-05T16:02:07.719Z,493.00
2017-06-05T16:03:03.984Z,1460.00
2017-06-05T16:04:00.211Z,1662.00
2017-06-05T16:04:56.499Z,1103.00
2017-06-05T16:05:52.740Z,408.00
2017-06-05T16:06:48.988Z,385.00
2017-06-05T16:07:45.242Z,394.00
2017-06-05T16:08:41.479Z,547.00
2017-06-05T16:09:37.918Z,806.00
2017-06-05T16:10:34.158Z,554.00
2017-06-05T16:11:30.391Z,716.00
2017-06-05T16:12:26.635Z,1368.00
2017-06-05T16:13:22.894Z,1410.00
2017-06-05T16:14:19.118Z,924.00
2017-06-05T16:15:15.366Z,395.00
2017-06-05T16:16:11.763Z,325.00
2017-06-05T16:17:08.014Z,314.00
2017-06-05T16:18:05.147Z,309.00
2017-06-05T16:19:01.388Z,315.00
2017-06-05T16:19:57.624Z,326.00
2017-06-05T16:20:54.794Z,588.00
2017-06-05T16:21:51.895Z,1169.00
2017-06-05T16:22:48.187Z,1227.00
2017-06-05T16:23:44.528Z,925.00
2017-06-05T16:24:40.991Z,296.00
2017-06-05T16:25:38.021Z,262.00
2017-06-05T16:26:35.191Z,242.00
2017-06-05T16:27:31.418Z,228.00
2017-06-05T16:28:27.706Z,221.00
2017-06-05T16:29:23.990Z,223.00
2017-06-05T16:30:20.273Z,223.00
2017-06-05T16:31:16.518Z,220.00
2017-06-05T16:32:12.776Z,223.00
2017-06-05T16:33:10.015Z,222.00
2017-06-05T16:34:06.327Z,219.00
2017-06-05T16:35:02.572Z,217.00
2017-06-05T16:35:58.834Z,219.00
2017-06-05T16:36:55.159Z,225.00
2017-06-05T16:37:52.363Z,233.00
2017-06-05T16:38:48.655Z,285.00
2017-06-05T16:39:44.930Z,304.00
2017-06-05T16:40:41.484Z,297.00
2017-06-05T16:41:38.662Z,299.00
2017-06-05T16:42:37.941Z,314.00
2017-06-05T16:43:34.206Z,316.00
2017-06-05T16:44:30.463Z,315.00
2017-06-05T16:45:28.935Z,307.00
2017-06-05T16:46:25.223Z,348.00
2017-06-05T16:47:21.511Z,330.00
2017-06-05T16:48:17.750Z,309.00
2017-06-05T16:49:14.019Z,351.00
2017-06-05T16:50:11.226Z,326.00
2017-06-05T16:51:07.471Z,305.00
2017-06-05T16:52:03.719Z,281.00
2017-06-05T16:52:59.943Z,289.00
2017-06-05T16:53:56.190Z,287.00
2017-06-05T16:54:53.280Z,281.00
2017-06-05T16:55:49.546Z,285.00
2017-06-05T16:56:46.790Z,291.00
2017-06-05T16:57:43.045Z,293.00
2017-06-05T16:58:39.271Z,288.00
2017-06-05T16:59:35.547Z,286.00
2017-06-05T17:00:31.823Z,291.00
2017-06-05T17:01:28.938Z,289.00
2017-06-05T17:02:25.239Z,288.00
2017-06-05T17:03:21.479Z,295.00
2017-06-05T17:04:17.711Z,298.00
2017-06-05T17:05:14.822Z,294.00
2017-06-05T17:06:11.368Z,287.00
2017-06-05T17:07:07.712Z,283.00
2017-06-05T17:08:03.971Z,280.00
2017-06-05T17:09:01.051Z,277.00
2017-06-05T17:09:58.287Z,271.00
2017-06-05T17:10:54.571Z,263.00
2017-06-05T17:11:51.659Z,256.00
2017-06-05T17:12:47.961Z,247.00
2017-06-05T17:13:45.215Z,241.00
2017-06-05T17:14:44.490Z,235.00
2017-06-05T17:15:40.767Z,231.00
2017-06-05T17:16:37.023Z,229.00
2017-06-05T17:17:33.661Z,229.00
2017-06-05T17:18:30.003Z,229.00
2017-06-05T17:19:26.242Z,228.00
2017-06-05T17:20:23.340Z,228.00
2017-06-05T17:21:20.591Z,213.00
2017-06-05T17:22:17.767Z,204.00
2017-06-05T17:23:14.571Z,208.00
2017-06-05T17:24:10.903Z,247.00
2017-06-05T17:25:08.135Z,256.00
2017-06-05T17:26:05.158Z,283.00
2017-06-05T17:27:01.426Z,281.00
2017-06-05T17:27:58.596Z,274.00
2017-06-05T17:28:54.834Z,269.00
2017-06-05T17:29:51.119Z,264.00
2017-06-05T17:30:47.399Z,256.00
2017-06-05T17:31:43.658Z,193.00
2017-06-05T17:32:41.921Z,187.00
2017-06-05T17:33:39.099Z,184.00
2017-06-05T17:34:35.467Z,181.00
2017-06-05T17:35:31.727Z,175.00
2017-06-05T17:36:28.815Z,167.00
2017-06-05T17:37:25.098Z,163.00
2017-06-05T17:38:21.351Z,164.00
2017-06-05T17:39:17.627Z,166.00
2017-06-05T17:40:14.059Z,169.00
2017-06-05T17:41:10.392Z,167.00
2017-06-05T17:42:06.697Z,164.00
2017-06-05T17:43:02.955Z,162.00
2017-06-05T17:43:59.252Z,187.00
2017-06-05T17:44:55.595Z,176.00
2017-06-05T17:45:51.858Z,157.00
2017-06-05T17:46:48.127Z,186.00
2017-06-05T17:47:44.390Z,202.00
2017-06-05T17:48:40.841Z,191.00
2017-06-05T17:49:37.094Z,161.00
2017-06-05T17:50:34.171Z,156.00
2017-06-05T17:51:30.654Z,148.00
2017-06-05T17:52:26.899Z,135.00
2017-06-05T17:53:23.150Z,131.00
2017-06-05T17:54:20.374Z,129.00
2017-06-05T17:55:16.648Z,129.00
2017-06-05T17:56:13.114Z,128.00
2017-06-05T17:57:09.595Z,127.00
2017-06-05T17:58:05.847Z,128.00
2017-06-05T17:59:02.119Z,130.00
2017-06-05T17:59:58.379Z,132.00
2017-06-05T18:00:54.631Z,133.00
2017-06-05T18:01:50.899Z,135.00
2017-06-05T18:02:47.446Z,137.00
2017-06-05T18:03:43.829Z,142.00
2017-06-05T18:04:40.243Z,137.00
2017-06-05T18:05:36.482Z,143.00
2017-06-05T18:06:32.743Z,134.00
2017-06-05T18:07:29.366Z,132.00
2017-06-05T18:08:25.643Z,129.00
2017-06-05T18:09:22.293Z,127.00
2017-06-05T18:10:19.143Z,127.00
2017-06-05T18:11:15.403Z,123.00
2017-06-05T18:12:11.663Z,144.00
2017-06-05T18:13:07.979Z,142.00
2017-06-05T18:14:04.262Z,141.00
2017-06-05T18:15:00.528Z,134.00
2017-06-05T18:15:57.302Z,120.00
2017-06-05T18:16:53.768Z,119.00
2017-06-05T18:17:50.022Z,118.00
2017-06-05T18:18:46.528Z,117.00
2017-06-05T18:19:42.827Z,115.00
2017-06-05T18:20:39.295Z,114.00
2017-06-05T18:21:35.566Z,114.00
2017-06-05T18:22:31.884Z,113.00
2017-06-05T18:23:28.631Z,112.00
2017-06-05T18:24:24.888Z,110.00
2017-06-05T18:25:21.147Z,110.00
2017-06-05T18:26:17.446Z,108.00
2017-06-05T18:27:13.726Z,107.00
2017-06-05T18:28:09.966Z,106.00
2017-06-05T18:29:07.247Z,104.00
2017-06-05T18:30:05.519Z,104.00
2017-06-05T18:31:03.575Z,105.00
2017-06-05T18:31:59.966Z,101.00
2017-06-05T18:32:56.447Z,100.00
2017-06-05T18:33:52.751Z,99.00
2017-06-05T18:34:50.243Z,97.00
2017-06-05T18:35:46.535Z,96.00
2017-06-05T18:36:43.625Z,97.00
2017-06-05T18:37:40.947Z,96.00
2017-06-05T18:38:42.195Z,94.00
2017-06-05T18:39:38.803Z,89.00
2017-06-05T18:40:35.910Z,87.00
2017-06-05T18:41:32.207Z,85.00
2017-06-05T18:42:28.511Z,83.00
2017-06-05T18:43:27.835Z,82.00
2017-06-05T18:44:24.184Z,81.00
2017-06-05T18:45:22.677Z,80.00
2017-06-05T18:46:19.431Z,77.00
2017-06-05T18:47:17.668Z,74.00
2017-06-05T18:48:14.159Z,72.00
2017-06-05T18:49:12.399Z,70.00
2017-06-05T18:50:08.920Z,68.00
2017-06-05T18:51:08.498Z,66.00
2017-06-05T18:52:04.803Z,64.00
2017-06-05T18:53:01.070Z,63.00
2017-06-05T18:53:57.751Z,62.00
2017-06-05T18:54:55.047Z,60.00
2017-06-05T18:55:51.862Z,58.00
2017-06-05T18:56:48.183Z,56.00
2017-06-05T18:57:44.439Z,53.00
2017-06-05T18:58:40.723Z,51.00
2017-06-05T18:59:37.107Z,50.00
2017-06-05T19:00:36.503Z,48.00
2017-06-05T19:01:32.771Z,47.00
2017-06-05T19:02:29.022Z,45.00
2017-06-05T19:03:25.326Z,44.00
2017-06-05T19:04:21.587Z,42.00
2017-06-05T19:05:18.255Z,40.00
2017-06-05T19:06:14.516Z,39.00
2017-06-05T19:07:10.780Z,38.00
2017-06-05T19:08:08.707Z,36.00
2017-06-05T19:09:05.096Z,34.00
2017-06-05T19:10:01.350Z,33.00
2017-06-05T19:10:57.837Z,31.00
2017-06-05T19:11:54.108Z,30.00
2017-06-05T19:12:50.406Z,28.00
2017-06-05T19:13:46.690Z,27.00
2017-06-05T19:14:43.290Z,25.00
2017-06-05T19:15:39.872Z,24.00
2017-06-05T19:16:36.175Z,22.00
2017-06-05T19:17:32.423Z,21.00
2017-06-05T19:18:28.881Z,20.00
2017-06-05T19:19:25.139Z,19.00
2017-06-05T19:20:22.222Z,18.00
2017-06-05T19:21:18.480Z,17.00
2017-06-05T19:22:14.779Z,16.00
2017-06-05T19:24:13.883Z,14.00
2017-06-05T19:25:10.143Z,13.00
2017-06-05T19:26:06.740Z,13.00
2017-06-05T19:27:04.081Z,12.00
2017-06-05T19:28:00.709Z,11.00
2017-06-05T19:28:57.264Z,10.00
2017-06-05T19:29:54.544Z,9.00
2017-06-05T19:30:52.457Z,9.00
2017-06-05T19:31:49.109Z,8.00
2017-06-05T19:32:46.456Z,8.00
2017-06-05T19:33:43.559Z,7.00
2017-06-05T19:34:39.875Z,7.00
2017-06-05T19:35:36.143Z,6.00
2017-06-05T19:36:32.696Z,6.00
2017-06-05T19:37:29.039Z,5.00
2017-06-05T19:38:27.388Z,5.00
2017-06-05T19:39:23.905Z,4.00
2017-06-05T19:40:21.002Z,4.00
2017-06-05T19:41:19.383Z,4.00
2017-06-05T19:42:17.744Z,3.00
2017-06-05T19:43:14.252Z,3.00
2017-06-05T19:44:11.016Z,3.00
2017-06-05T19:45:09.510Z,2.00
2017-06-05T19:46:05.832Z,2.00
2017-06-05T19:47:03.120Z,2.00
2017-06-05T19:48:01.712Z,2.00
2017-06-05T19:48:58.023Z,2.00
2017-06-05T19:49:54.567Z,1.00
2017-06-05T19:50:53.736Z,1.00
2017-06-05T19:51:50.127Z,1.00
2017-06-05T19:52:51.692Z,1.00
2017-06-05T19:53:47.950Z,1.00
2017-06-05T19:54:44.507Z,1.00
2017-06-05T19:55:40.827Z,1.00
2017-06-05T19:56:37.179Z,1.00
2017-06-05T19:57:33.568Z,1.00
2017-06-05T19:58:34.276Z,1.00
2017-06-05T19:59:31.896Z,0.00
2017-06-05T20:00:30.268Z,0.00
2017-06-05T20:01:26.727Z,0.00
2017-06-05T20:02:25.107Z,0.00
2017-06-05T20:03:21.447Z,0.00
2017-06-05T20:04:17.740Z,0.00
2017-06-05T20:05:16.358Z,0.00
2017-06-05T20:06:12.748Z,0.00
2017-06-05T20:07:09.171Z,0.00
2017-06-05T20:08:07.768Z,0.00
2017-06-05T20:09:04.891Z,0.00
2017-06-05T20:10:03.427Z,0.00
2017-06-05T20:11:00.782Z,0.00
2017-06-05T20:12:01.250Z,0.00
2017-06-05T20:14:10.352Z,0.00
2017-06-05T20:15:09.460Z,0.00
2017-06-05T20:16:07.692Z,0.00
2017-06-05T20:17:04.587Z,0.00
2017-06-05T20:18:07.385Z,0.00
2017-06-05T20:19:06.028Z,0.00
2017-06-05T20:20:10.299Z,0.00
2017-06-05T20:23:29.431Z,0.00
2017-06-05T20:25:37.748Z,0.00
2017-06-05T20:30:16.971Z,0.00
2017-06-05T20:33:42.587Z,0.00
2017-06-05T20:34:47.327Z,0.00
2017-06-05T20:35:50.284Z,0.00
2017-06-05T20:36:53.231Z,0.00
2017-06-05T20:40:26.689Z,0.00
2017-06-05T20:41:24.227Z,0.00
2017-06-05T20:42:23.626Z,0.00
2017-06-05T20:43:23.971Z,0.00
2017-06-05T20:44:22.279Z,0.00
2017-06-05T20:45:18.796Z,0.00
2017-06-05T20:46:21.695Z,0.00
2017-06-05T20:47:24.800Z,0.00
2017-06-05T20:48:31.457Z,0.00
2017-06-05T20:49:34.763Z,0.00
2017-06-05T20:50:37.736Z,0.00
2017-06-05T20:51:40.772Z,0.00
2017-06-05T20:52:43.607Z,0.00
2017-06-05T20:53:39.995Z,0.00
2017-06-05T20:55:45.291Z,0.00
2017-06-05T20:56:42.855Z,0.00
2017-06-05T20:57:42.328Z,0.00
2017-06-05T20:58:45.192Z,0.00
2017-06-05T20:59:48.584Z,0.00
2017-06-05T21:00:51.584Z,0.00
2017-06-05T21:01:53.654Z,0.00
2017-06-05T21:04:09.217Z,0.00
2017-06-05T21:05:11.752Z,0.00
2017-06-05T21:06:09.099Z,0.00
2017-06-05T21:07:13.796Z,0.00
2017-06-05T21:08:11.180Z,0.00
2017-06-05T21:09:14.960Z,0.00
2017-06-05T21:10:13.679Z,0.00
2017-06-05T21:18:27.291Z,0.00
2017-06-05T21:20:47.403Z,0.00
2017-06-05T21:24:16.696Z,0.00
2017-06-05T21:26:31.488Z,0.00
2017-06-05T21:27:33.786Z,0.00
2017-06-05T21:28:34.981Z,0.00
2017-06-05T21:29:31.661Z,0.00
2017-06-05T21:31:53.523Z,0.00
2017-06-05T21:33:59.652Z,0.00
2017-06-05T21:36:20.162Z,0.00
2017-06-05T21:37:19.791Z,0.00
2017-06-05T21:38:27.829Z,0.00
2017-06-05T21:40:47.579Z,0.00
2017-06-05T21:45:32.226Z,0.00
2017-06-05T21:46:35.587Z,0.00
2017-06-05T21:47:32.307Z,0.00
2017-06-05T21:48:32.796Z,0.00
2017-06-05T21:50:38.892Z,0.00
2017-06-05T21:51:43.480Z,0.00
2017-06-05T21:52:40.927Z,0.00
2017-06-05T21:53:38.764Z,0.00
2017-06-05T21:54:35.968Z,0.00
2017-06-05T21:55:34.821Z,0.00
2017-06-05T21:57:38.792Z,0.00
2017-06-05T21:58:35.608Z,0.00
2017-06-05T21:59:34.852Z,0.00
2017-06-05T22:00:31.501Z,0.00
2017-06-05T22:01:29.004Z,0.00
2017-06-05T22:02:25.708Z,0.00
2017-06-05T22:03:22.436Z,0.00
2017-06-05T22:04:18.807Z,0.00
2017-06-05T22:05:15.564Z,0.00
2017-06-05T22:06:12.212Z,0.00
2017-06-05T22:07:10.544Z,0.00
2017-06-05T22:08:07.721Z,0.00
2017-06-05T22:09:10.503Z,0.00
2017-06-05T22:10:08.716Z,0.00
2017-06-05T22:11:05.328Z,0.00
2017-06-05T22:12:08.272Z,0.00
2017-06-05T22:13:05.092Z,0.00
2017-06-05T22:14:02.243Z,0.00
2017-06-05T22:23:12.427Z,0.00
2017-06-05T22:24:12.323Z,0.00
2017-06-05T22:25:12.290Z,0.00
2017-06-05T22:26:12.528Z,0.00
2017-06-05T22:27:18.176Z,0.00
2017-06-05T22:28:16.432Z,0.00
2017-06-05T22:29:20.688Z,0.00
2017-06-05T22:30:17.400Z,0.00
2017-06-05T22:31:17.296Z,0.00
2017-06-05T22:33:22.868Z,0.00
2017-06-05T22:34:21.539Z,0.00
2017-06-05T22:35:22.187Z,0.00
2017-06-05T22:36:19.815Z,0.00
2017-06-05T22:37:21.232Z,0.00
2017-06-05T22:38:17.900Z,0.00
2017-06-05T22:39:16.278Z,0.00
2017-06-05T22:40:14.401Z,0.00
2017-06-05T22:41:10.900Z,0.00
2017-06-05T22:42:07.644Z,0.00
2017-06-05T22:43:04.760Z,0.00
2017-06-05T22:45:25.035Z,0.00
2017-06-05T22:46:27.477Z,0.00
2017-06-05T22:47:32.112Z,0.00
2017-06-05T22:48:35.682Z,0.00
2017-06-05T22:49:38.148Z,0.00
2017-06-05T22:50:41.480Z,0.00
2017-06-05T22:51:44.280Z,0.00
2017-06-05T22:52:42.680Z,0.00
2017-06-05T22:53:40.503Z,0.00
2017-06-05T22:54:48.635Z,0.00
2017-06-05T22:56:53.092Z,0.00
2017-06-05T23:01:19.400Z,0.00
2017-06-05T23:02:23.627Z,0.00
2017-06-05T23:03:23.971Z,0.00
2017-06-05T23:04:26.231Z,0.00
2017-06-05T23:05:26.679Z,0.00
2017-06-05T23:06:25.209Z,0.00
2017-06-05T23:08:28.302Z,0.00
2017-06-05T23:09:25.987Z,0.00
2017-06-05T23:10:22.408Z,0.00
2017-06-05T23:11:22.923Z,0.00
2017-06-05T23:19:58.464Z,0.00
2017-06-05T23:20:55.076Z,0.00
2017-06-05T23:22:00.416Z,0.00
2017-06-05T23:22:58.552Z,0.00
2017-06-05T23:25:11.206Z,0.00
2017-06-05T23:26:09.532Z,0.00
2017-06-05T23:28:18.204Z,0.00
2017-06-05T23:29:16.988Z,0.00
2017-06-05T23:36:54.680Z,0.00
2017-06-05T23:41:18.016Z,0.00
2017-06-05T23:47:00.252Z,0.00
2017-06-05T23:47:56.487Z,0.00
2017-06-05T23:48:52.719Z,0.00
2017-06-05T23:49:48.974Z,0.00
2017-06-05T23:50:45.213Z,0.00
2017-06-05T23:51:41.455Z,0.00
2017-06-05T23:52:37.683Z,0.00
2017-06-05T23:53:33.923Z,0.00
2017-06-05T23:54:30.187Z,0.00
2017-06-05T23:55:26.424Z,0.00
2017-06-05T23:56:22.682Z,0.00
2017-06-05T23:57:18.923Z,0.00
2017-06-05T23:58:15.171Z,0.00
2017-06-05T23:59:11.406Z,0.00
